sensor_id;sensor_type;location;lat;lon;timestamp;P1;durP1;ratioP1;P2;durP2;ratioP2
18455;SDS011;9357;49.900;8.208;2023-07-28T00:00:38;2.43;;;2.30;;
18455;SDS011;9357;49.900;8.208;2023-07-28T00:02:10;1.97;;;1.87;;
18455;SDS011;9357;49.900;8.208;2023-07-28T00:03:43;3.40;;;2.60;;
18455;SDS011;9357;49.900;8.208;2023-07-28T00:05:16;3.50;;;2.40;;
18455;SDS011;9357;49.900;8.208;2023-07-28T00:06:49;2.70;;;2.20;;
18455;SDS011;9357;49.900;8.208;2023-07-28T00:08:21;2.40;;;2.20;;
18455;SDS011;9357;49.900;8.208;2023-07-28T00:09:54;2.17;;;2.07;;
18455;SDS011;9357;49.900;8.208;2023-07-28T00:11:26;2.20;;;2.00;;
18455;SDS011;9357;49.900;8.208;2023-07-28T00:12:58;4.77;;;1.90;;
18455;SDS011;9357;49.900;8.208;2023-07-28T00:14:30;2.80;;;2.20;;
18455;SDS011;9357;49.900;8.208;2023-07-28T00:16:03;2.17;;;2.07;;
18455;SDS011;9357;49.900;8.208;2023-07-28T00:17:35;2.20;;;2.00;;
18455;SDS011;9357;49.900;8.208;2023-07-28T00:19:08;2.40;;;2.10;;
18455;SDS011;9357;49.900;8.208;2023-07-28T00:20:41;2.30;;;2.10;;
18455;SDS011;9357;49.900;8.208;2023-07-28T00:22:14;2.00;;;1.90;;
18455;SDS011;9357;49.900;8.208;2023-07-28T00:23:45;2.47;;;2.00;;
18455;SDS011;9357;49.900;8.208;2023-07-28T00:25:18;2.20;;;2.03;;
18455;SDS011;9357;49.900;8.208;2023-07-28T00:26:50;5.30;;;2.10;;
18455;SDS011;9357;49.900;8.208;2023-07-28T00:28:23;2.57;;;2.20;;
18455;SDS011;9357;49.900;8.208;2023-07-28T00:29:55;2.40;;;2.10;;
18455;SDS011;9357;49.900;8.208;2023-07-28T00:31:28;4.20;;;1.90;;
18455;SDS011;9357;49.900;8.208;2023-07-28T00:32:59;2.20;;;2.00;;
18455;SDS011;9357;49.900;8.208;2023-07-28T00:34:32;3.00;;;2.00;;
18455;SDS011;9357;49.900;8.208;2023-07-28T00:36:05;2.63;;;2.07;;
18455;SDS011;9357;49.900;8.208;2023-07-28T00:37:38;3.47;;;2.20;;
18455;SDS011;9357;49.900;8.208;2023-07-28T00:39:10;2.67;;;2.03;;
18455;SDS011;9357;49.900;8.208;2023-07-28T00:40:42;3.20;;;2.00;;
18455;SDS011;9357;49.900;8.208;2023-07-28T00:42:14;2.10;;;1.90;;
18455;SDS011;9357;49.900;8.208;2023-07-28T00:43:47;2.30;;;2.10;;
18455;SDS011;9357;49.900;8.208;2023-07-28T00:45:19;2.20;;;2.00;;
18455;SDS011;9357;49.900;8.208;2023-07-28T00:46:52;2.23;;;2.03;;
18455;SDS011;9357;49.900;8.208;2023-07-28T00:48:24;2.43;;;2.23;;
18455;SDS011;9357;49.900;8.208;2023-07-28T00:49:57;2.40;;;2.20;;
18455;SDS011;9357;49.900;8.208;2023-07-28T00:51:31;2.23;;;2.03;;
18455;SDS011;9357;49.900;8.208;2023-07-28T00:53:04;2.93;;;2.03;;
18455;SDS011;9357;49.900;8.208;2023-07-28T00:54:35;2.20;;;2.07;;
18455;SDS011;9357;49.900;8.208;2023-07-28T00:56:08;2.57;;;2.10;;
18455;SDS011;9357;49.900;8.208;2023-07-28T00:57:43;2.83;;;2.10;;
18455;SDS011;9357;49.900;8.208;2023-07-28T00:59:15;3.00;;;2.03;;
18455;SDS011;9357;49.900;8.208;2023-07-28T01:00:48;2.40;;;2.20;;
18455;SDS011;9357;49.900;8.208;2023-07-28T01:02:20;2.30;;;2.10;;
18455;SDS011;9357;49.900;8.208;2023-07-28T01:03:53;2.90;;;2.30;;
18455;SDS011;9357;49.900;8.208;2023-07-28T01:05:26;2.20;;;2.00;;
18455;SDS011;9357;49.900;8.208;2023-07-28T01:07:08;2.20;;;2.00;;
18455;SDS011;9357;49.900;8.208;2023-07-28T01:08:42;2.17;;;1.97;;
18455;SDS011;9357;49.900;8.208;2023-07-28T01:10:22;2.50;;;2.00;;
18455;SDS011;9357;49.900;8.208;2023-07-28T01:11:58;2.43;;;2.23;;
18455;SDS011;9357;49.900;8.208;2023-07-28T01:13:31;2.30;;;2.17;;
18455;SDS011;9357;49.900;8.208;2023-07-28T01:15:05;3.03;;;2.30;;
18455;SDS011;9357;49.900;8.208;2023-07-28T01:16:37;2.50;;;2.30;;
18455;SDS011;9357;49.900;8.208;2023-07-28T01:18:10;3.40;;;2.20;;
18455;SDS011;9357;49.900;8.208;2023-07-28T01:19:42;2.70;;;2.40;;
18455;SDS011;9357;49.900;8.208;2023-07-28T01:21:17;2.57;;;2.20;;
18455;SDS011;9357;49.900;8.208;2023-07-28T01:22:59;2.40;;;2.20;;
18455;SDS011;9357;49.900;8.208;2023-07-28T01:24:42;2.27;;;2.10;;
18455;SDS011;9357;49.900;8.208;2023-07-28T01:26:27;3.20;;;2.20;;
18455;SDS011;9357;49.900;8.208;2023-07-28T01:28:03;2.30;;;2.10;;
18455;SDS011;9357;49.900;8.208;2023-07-28T01:29:36;2.53;;;2.17;;
18455;SDS011;9357;49.900;8.208;2023-07-28T01:31:09;2.57;;;2.37;;
18455;SDS011;9357;49.900;8.208;2023-07-28T01:32:41;2.43;;;2.07;;
18455;SDS011;9357;49.900;8.208;2023-07-28T01:34:13;2.87;;;2.10;;
18455;SDS011;9357;49.900;8.208;2023-07-28T01:35:46;2.30;;;2.10;;
18455;SDS011;9357;49.900;8.208;2023-07-28T01:37:18;2.33;;;2.10;;
18455;SDS011;9357;49.900;8.208;2023-07-28T01:38:51;2.07;;;1.97;;
18455;SDS011;9357;49.900;8.208;2023-07-28T01:40:25;2.70;;;2.50;;
18455;SDS011;9357;49.900;8.208;2023-07-28T01:41:58;2.70;;;2.20;;
18455;SDS011;9357;49.900;8.208;2023-07-28T01:43:30;2.60;;;2.10;;
18455;SDS011;9357;49.900;8.208;2023-07-28T01:45:03;2.37;;;2.07;;
18455;SDS011;9357;49.900;8.208;2023-07-28T01:46:37;2.47;;;2.20;;
18455;SDS011;9357;49.900;8.208;2023-07-28T01:48:11;2.50;;;2.30;;
18455;SDS011;9357;49.900;8.208;2023-07-28T01:49:43;2.70;;;2.43;;
18455;SDS011;9357;49.900;8.208;2023-07-28T01:51:15;3.03;;;2.30;;
18455;SDS011;9357;49.900;8.208;2023-07-28T01:52:48;3.10;;;2.10;;
18455;SDS011;9357;49.900;8.208;2023-07-28T01:54:21;3.70;;;2.50;;
18455;SDS011;9357;49.900;8.208;2023-07-28T01:55:53;3.13;;;2.00;;
18455;SDS011;9357;49.900;8.208;2023-07-28T01:57:27;2.17;;;1.90;;
18455;SDS011;9357;49.900;8.208;2023-07-28T01:58:59;2.70;;;2.33;;
18455;SDS011;9357;49.900;8.208;2023-07-28T02:00:33;2.57;;;2.20;;
18455;SDS011;9357;49.900;8.208;2023-07-28T02:02:06;3.77;;;2.30;;
18455;SDS011;9357;49.900;8.208;2023-07-28T02:03:38;2.23;;;2.07;;
18455;SDS011;9357;49.900;8.208;2023-07-28T02:05:11;2.77;;;1.80;;
18455;SDS011;9357;49.900;8.208;2023-07-28T02:06:43;3.70;;;2.03;;
18455;SDS011;9357;49.900;8.208;2023-07-28T02:08:15;2.93;;;2.13;;
18455;SDS011;9357;49.900;8.208;2023-07-28T02:09:47;2.67;;;2.40;;
18455;SDS011;9357;49.900;8.208;2023-07-28T02:11:20;2.00;;;1.90;;
18455;SDS011;9357;49.900;8.208;2023-07-28T02:12:54;2.73;;;1.90;;
18455;SDS011;9357;49.900;8.208;2023-07-28T02:14:25;2.10;;;1.90;;
18455;SDS011;9357;49.900;8.208;2023-07-28T02:15:58;2.20;;;2.03;;
18455;SDS011;9357;49.900;8.208;2023-07-28T02:17:30;2.37;;;2.00;;
18455;SDS011;9357;49.900;8.208;2023-07-28T02:19:03;2.07;;;1.90;;
18455;SDS011;9357;49.900;8.208;2023-07-28T02:20:36;2.57;;;2.37;;
18455;SDS011;9357;49.900;8.208;2023-07-28T02:22:10;2.30;;;2.00;;
18455;SDS011;9357;49.900;8.208;2023-07-28T02:23:42;2.27;;;2.07;;
18455;SDS011;9357;49.900;8.208;2023-07-28T02:25:15;2.20;;;2.00;;
18455;SDS011;9357;49.900;8.208;2023-07-28T02:26:48;3.27;;;1.93;;
18455;SDS011;9357;49.900;8.208;2023-07-28T02:28:21;3.37;;;2.00;;
18455;SDS011;9357;49.900;8.208;2023-07-28T02:29:54;2.20;;;2.00;;
18455;SDS011;9357;49.900;8.208;2023-07-28T02:31:26;2.13;;;1.93;;
18455;SDS011;9357;49.900;8.208;2023-07-28T02:32:59;2.33;;;2.07;;
18455;SDS011;9357;49.900;8.208;2023-07-28T02:34:31;2.30;;;2.10;;
18455;SDS011;9357;49.900;8.208;2023-07-28T02:36:03;2.30;;;2.10;;
18455;SDS011;9357;49.900;8.208;2023-07-28T02:37:35;2.23;;;1.80;;
18455;SDS011;9357;49.900;8.208;2023-07-28T02:39:08;2.40;;;1.97;;
18455;SDS011;9357;49.900;8.208;2023-07-28T02:40:40;2.97;;;2.20;;
18455;SDS011;9357;49.900;8.208;2023-07-28T02:42:13;2.13;;;1.93;;
18455;SDS011;9357;49.900;8.208;2023-07-28T02:43:46;1.90;;;1.80;;
18455;SDS011;9357;49.900;8.208;2023-07-28T02:45:18;2.47;;;1.80;;
18455;SDS011;9357;49.900;8.208;2023-07-28T02:46:50;2.20;;;1.80;;
18455;SDS011;9357;49.900;8.208;2023-07-28T02:48:23;2.30;;;2.10;;
18455;SDS011;9357;49.900;8.208;2023-07-28T02:49:56;2.63;;;1.70;;
18455;SDS011;9357;49.900;8.208;2023-07-28T02:51:28;1.80;;;1.70;;
18455;SDS011;9357;49.900;8.208;2023-07-28T02:53:01;3.27;;;1.73;;
18455;SDS011;9357;49.900;8.208;2023-07-28T02:54:33;1.70;;;1.60;;
18455;SDS011;9357;49.900;8.208;2023-07-28T02:56:05;2.13;;;1.63;;
18455;SDS011;9357;49.900;8.208;2023-07-28T02:57:38;2.00;;;1.90;;
18455;SDS011;9357;49.900;8.208;2023-07-28T02:59:13;2.00;;;1.80;;
18455;SDS011;9357;49.900;8.208;2023-07-28T03:00:45;2.53;;;1.70;;
18455;SDS011;9357;49.900;8.208;2023-07-28T03:02:18;1.97;;;1.70;;
18455;SDS011;9357;49.900;8.208;2023-07-28T03:03:49;1.70;;;1.60;;
18455;SDS011;9357;49.900;8.208;2023-07-28T03:05:22;1.70;;;1.60;;
18455;SDS011;9357;49.900;8.208;2023-07-28T03:06:54;1.87;;;1.70;;
18455;SDS011;9357;49.900;8.208;2023-07-28T03:08:27;2.23;;;1.80;;
18455;SDS011;9357;49.900;8.208;2023-07-28T03:09:59;1.73;;;1.50;;
18455;SDS011;9357;49.900;8.208;2023-07-28T03:11:31;1.80;;;1.50;;
18455;SDS011;9357;49.900;8.208;2023-07-28T03:13:03;1.90;;;1.63;;
18455;SDS011;9357;49.900;8.208;2023-07-28T03:14:37;1.87;;;1.60;;
18455;SDS011;9357;49.900;8.208;2023-07-28T03:16:09;2.70;;;1.57;;
18455;SDS011;9357;49.900;8.208;2023-07-28T03:17:42;1.33;;;1.23;;
18455;SDS011;9357;49.900;8.208;2023-07-28T03:19:14;1.40;;;1.30;;
18455;SDS011;9357;49.900;8.208;2023-07-28T03:20:46;1.53;;;1.43;;
18455;SDS011;9357;49.900;8.208;2023-07-28T03:22:19;1.60;;;1.40;;
18455;SDS011;9357;49.900;8.208;2023-07-28T03:23:51;1.80;;;1.70;;
18455;SDS011;9357;49.900;8.208;2023-07-28T03:25:23;1.50;;;1.27;;
18455;SDS011;9357;49.900;8.208;2023-07-28T03:26:56;1.70;;;1.50;;
18455;SDS011;9357;49.900;8.208;2023-07-28T03:28:28;1.43;;;1.33;;
18455;SDS011;9357;49.900;8.208;2023-07-28T03:30:02;1.53;;;1.43;;
18455;SDS011;9357;49.900;8.208;2023-07-28T03:31:37;2.70;;;1.60;;
18455;SDS011;9357;49.900;8.208;2023-07-28T03:33:10;3.83;;;1.60;;
18455;SDS011;9357;49.900;8.208;2023-07-28T03:34:42;1.57;;;1.47;;
18455;SDS011;9357;49.900;8.208;2023-07-28T03:36:15;1.33;;;1.23;;
18455;SDS011;9357;49.900;8.208;2023-07-28T03:37:47;1.70;;;1.60;;
18455;SDS011;9357;49.900;8.208;2023-07-28T03:39:19;1.23;;;1.20;;
18455;SDS011;9357;49.900;8.208;2023-07-28T03:40:52;1.50;;;1.40;;
18455;SDS011;9357;49.900;8.208;2023-07-28T03:42:24;1.40;;;1.30;;
18455;SDS011;9357;49.900;8.208;2023-07-28T03:43:57;1.63;;;1.30;;
18455;SDS011;9357;49.900;8.208;2023-07-28T03:45:30;1.43;;;1.30;;
18455;SDS011;9357;49.900;8.208;2023-07-28T03:47:03;1.60;;;1.50;;
18455;SDS011;9357;49.900;8.208;2023-07-28T03:48:35;1.60;;;1.43;;
18455;SDS011;9357;49.900;8.208;2023-07-28T03:50:08;1.40;;;1.30;;
18455;SDS011;9357;49.900;8.208;2023-07-28T03:51:40;1.60;;;1.50;;
18455;SDS011;9357;49.900;8.208;2023-07-28T03:53:13;1.50;;;1.40;;
18455;SDS011;9357;49.900;8.208;2023-07-28T03:54:46;1.50;;;1.40;;
18455;SDS011;9357;49.900;8.208;2023-07-28T03:56:17;1.83;;;1.33;;
18455;SDS011;9357;49.900;8.208;2023-07-28T03:57:50;1.47;;;1.37;;
18455;SDS011;9357;49.900;8.208;2023-07-28T03:59:22;3.17;;;1.40;;
18455;SDS011;9357;49.900;8.208;2023-07-28T04:00:56;1.60;;;1.47;;
18455;SDS011;9357;49.900;8.208;2023-07-28T04:02:28;1.80;;;1.50;;
18455;SDS011;9357;49.900;8.208;2023-07-28T04:04:01;1.50;;;1.40;;
18455;SDS011;9357;49.900;8.208;2023-07-28T04:05:38;1.77;;;1.67;;
18455;SDS011;9357;49.900;8.208;2023-07-28T04:07:11;1.47;;;1.37;;
18455;SDS011;9357;49.900;8.208;2023-07-28T04:08:43;1.73;;;1.57;;
18455;SDS011;9357;49.900;8.208;2023-07-28T04:10:17;2.13;;;1.57;;
18455;SDS011;9357;49.900;8.208;2023-07-28T04:11:50;1.90;;;1.80;;
18455;SDS011;9357;49.900;8.208;2023-07-28T04:13:22;1.60;;;1.47;;
18455;SDS011;9357;49.900;8.208;2023-07-28T04:14:54;1.80;;;1.70;;
18455;SDS011;9357;49.900;8.208;2023-07-28T04:16:29;2.07;;;1.50;;
18455;SDS011;9357;49.900;8.208;2023-07-28T04:18:02;1.70;;;1.60;;
18455;SDS011;9357;49.900;8.208;2023-07-28T04:19:34;1.83;;;1.50;;
18455;SDS011;9357;49.900;8.208;2023-07-28T04:21:07;1.87;;;1.60;;
18455;SDS011;9357;49.900;8.208;2023-07-28T04:22:39;2.90;;;1.70;;
18455;SDS011;9357;49.900;8.208;2023-07-28T04:24:12;2.40;;;2.00;;
18455;SDS011;9357;49.900;8.208;2023-07-28T04:25:44;1.80;;;1.70;;
18455;SDS011;9357;49.900;8.208;2023-07-28T04:27:16;2.00;;;1.80;;
18455;SDS011;9357;49.900;8.208;2023-07-28T04:28:49;1.67;;;1.57;;
18455;SDS011;9357;49.900;8.208;2023-07-28T04:30:22;1.80;;;1.70;;
18455;SDS011;9357;49.900;8.208;2023-07-28T04:31:55;1.90;;;1.80;;
18455;SDS011;9357;49.900;8.208;2023-07-28T04:33:27;1.80;;;1.70;;
18455;SDS011;9357;49.900;8.208;2023-07-28T04:34:59;1.83;;;1.73;;
18455;SDS011;9357;49.900;8.208;2023-07-28T04:36:32;1.73;;;1.63;;
18455;SDS011;9357;49.900;8.208;2023-07-28T04:38:04;1.90;;;1.80;;
18455;SDS011;9357;49.900;8.208;2023-07-28T04:39:37;1.87;;;1.77;;
18455;SDS011;9357;49.900;8.208;2023-07-28T04:41:09;1.90;;;1.80;;
18455;SDS011;9357;49.900;8.208;2023-07-28T04:42:41;1.67;;;1.57;;
18455;SDS011;9357;49.900;8.208;2023-07-28T04:44:14;1.70;;;1.60;;
18455;SDS011;9357;49.900;8.208;2023-07-28T04:45:46;1.93;;;1.83;;
18455;SDS011;9357;49.900;8.208;2023-07-28T04:47:20;3.07;;;1.77;;
18455;SDS011;9357;49.900;8.208;2023-07-28T04:48:53;1.83;;;1.73;;
18455;SDS011;9357;49.900;8.208;2023-07-28T04:50:26;2.00;;;1.80;;
18455;SDS011;9357;49.900;8.208;2023-07-28T04:51:59;1.80;;;1.70;;
18455;SDS011;9357;49.900;8.208;2023-07-28T04:53:31;1.93;;;1.83;;
18455;SDS011;9357;49.900;8.208;2023-07-28T04:55:03;1.80;;;1.70;;
18455;SDS011;9357;49.900;8.208;2023-07-28T04:56:37;2.53;;;1.80;;
18455;SDS011;9357;49.900;8.208;2023-07-28T04:58:08;1.80;;;1.70;;
18455;SDS011;9357;49.900;8.208;2023-07-28T04:59:41;1.80;;;1.70;;
18455;SDS011;9357;49.900;8.208;2023-07-28T05:01:14;1.70;;;1.60;;
18455;SDS011;9357;49.900;8.208;2023-07-28T05:02:48;1.73;;;1.63;;
18455;SDS011;9357;49.900;8.208;2023-07-28T05:04:20;2.73;;;2.20;;
18455;SDS011;9357;49.900;8.208;2023-07-28T05:05:53;2.20;;;2.00;;
18455;SDS011;9357;49.900;8.208;2023-07-28T05:07:25;2.20;;;2.00;;
18455;SDS011;9357;49.900;8.208;2023-07-28T05:08:57;2.60;;;2.00;;
18455;SDS011;9357;49.900;8.208;2023-07-28T05:10:30;2.20;;;2.00;;
18455;SDS011;9357;49.900;8.208;2023-07-28T05:12:02;1.93;;;1.80;;
18455;SDS011;9357;49.900;8.208;2023-07-28T05:13:35;2.60;;;2.03;;
18455;SDS011;9357;49.900;8.208;2023-07-28T05:15:07;2.10;;;1.90;;
18455;SDS011;9357;49.900;8.208;2023-07-28T05:16:41;2.43;;;2.23;;
18455;SDS011;9357;49.900;8.208;2023-07-28T05:18:15;2.10;;;1.90;;
18455;SDS011;9357;49.900;8.208;2023-07-28T05:19:49;3.40;;;2.00;;
18455;SDS011;9357;49.900;8.208;2023-07-28T05:21:20;2.00;;;1.80;;
18455;SDS011;9357;49.900;8.208;2023-07-28T05:22:53;2.00;;;1.90;;
18455;SDS011;9357;49.900;8.208;2023-07-28T05:24:25;2.30;;;2.10;;
18455;SDS011;9357;49.900;8.208;2023-07-28T05:25:58;1.73;;;1.63;;
18455;SDS011;9357;49.900;8.208;2023-07-28T05:27:29;2.50;;;1.93;;
18455;SDS011;9357;49.900;8.208;2023-07-28T05:29:02;2.33;;;1.67;;
18455;SDS011;9357;49.900;8.208;2023-07-28T05:30:35;1.80;;;1.70;;
18455;SDS011;9357;49.900;8.208;2023-07-28T05:32:07;2.03;;;1.70;;
18455;SDS011;9357;49.900;8.208;2023-07-28T05:33:41;2.20;;;2.00;;
18455;SDS011;9357;49.900;8.208;2023-07-28T05:35:14;3.23;;;1.87;;
18455;SDS011;9357;49.900;8.208;2023-07-28T05:36:47;1.90;;;1.80;;
18455;SDS011;9357;49.900;8.208;2023-07-28T05:38:19;1.63;;;1.53;;
18455;SDS011;9357;49.900;8.208;2023-07-28T05:39:51;2.43;;;1.77;;
18455;SDS011;9357;49.900;8.208;2023-07-28T05:41:23;2.77;;;1.63;;
18455;SDS011;9357;49.900;8.208;2023-07-28T05:42:56;1.77;;;1.67;;
18455;SDS011;9357;49.900;8.208;2023-07-28T05:44:29;1.70;;;1.60;;
18455;SDS011;9357;49.900;8.208;2023-07-28T05:46:00;1.87;;;1.30;;
18455;SDS011;9357;49.900;8.208;2023-07-28T05:47:34;3.50;;;1.60;;
18455;SDS011;9357;49.900;8.208;2023-07-28T05:49:08;1.90;;;1.70;;
18455;SDS011;9357;49.900;8.208;2023-07-28T05:50:41;1.57;;;1.47;;
18455;SDS011;9357;49.900;8.208;2023-07-28T05:52:12;2.00;;;1.40;;
18455;SDS011;9357;49.900;8.208;2023-07-28T05:53:45;1.57;;;1.30;;
18455;SDS011;9357;49.900;8.208;2023-07-28T05:55:17;1.40;;;1.30;;
18455;SDS011;9357;49.900;8.208;2023-07-28T05:56:50;3.87;;;1.40;;
18455;SDS011;9357;49.900;8.208;2023-07-28T05:58:21;1.50;;;1.37;;
18455;SDS011;9357;49.900;8.208;2023-07-28T05:59:54;1.20;;;1.10;;
18455;SDS011;9357;49.900;8.208;2023-07-28T06:01:26;2.07;;;1.30;;
18455;SDS011;9357;49.900;8.208;2023-07-28T06:02:59;1.47;;;1.20;;
18455;SDS011;9357;49.900;8.208;2023-07-28T06:04:32;1.10;;;1.10;;
18455;SDS011;9357;49.900;8.208;2023-07-28T06:06:05;1.33;;;1.23;;
18455;SDS011;9357;49.900;8.208;2023-07-28T06:07:37;1.10;;;1.10;;
18455;SDS011;9357;49.900;8.208;2023-07-28T06:09:09;1.33;;;1.20;;
18455;SDS011;9357;49.900;8.208;2023-07-28T06:10:41;1.37;;;1.20;;
18455;SDS011;9357;49.900;8.208;2023-07-28T06:12:14;1.00;;;0.90;;
18455;SDS011;9357;49.900;8.208;2023-07-28T06:13:47;1.10;;;1.10;;
18455;SDS011;9357;49.900;8.208;2023-07-28T06:15:20;1.77;;;1.40;;
18455;SDS011;9357;49.900;8.208;2023-07-28T06:16:52;1.70;;;1.00;;
18455;SDS011;9357;49.900;8.208;2023-07-28T06:18:24;1.23;;;1.23;;
18455;SDS011;9357;49.900;8.208;2023-07-28T06:19:59;1.03;;;1.00;;
18455;SDS011;9357;49.900;8.208;2023-07-28T06:21:31;2.00;;;1.30;;
18455;SDS011;9357;49.900;8.208;2023-07-28T06:23:04;1.03;;;1.03;;
18455;SDS011;9357;49.900;8.208;2023-07-28T06:24:36;1.10;;;1.10;;
18455;SDS011;9357;49.900;8.208;2023-07-28T06:26:09;2.17;;;1.30;;
18455;SDS011;9357;49.900;8.208;2023-07-28T06:27:40;1.77;;;1.10;;
18455;SDS011;9357;49.900;8.208;2023-07-28T06:29:14;1.17;;;1.10;;
18455;SDS011;9357;49.900;8.208;2023-07-28T06:30:45;1.00;;;1.00;;
18455;SDS011;9357;49.900;8.208;2023-07-28T06:32:18;1.00;;;1.00;;
18455;SDS011;9357;49.900;8.208;2023-07-28T06:33:51;1.47;;;1.00;;
18455;SDS011;9357;49.900;8.208;2023-07-28T06:35:25;0.90;;;0.90;;
18455;SDS011;9357;49.900;8.208;2023-07-28T06:36:58;0.80;;;0.80;;
18455;SDS011;9357;49.900;8.208;2023-07-28T06:38:31;1.53;;;1.20;;
18455;SDS011;9357;49.900;8.208;2023-07-28T06:40:04;1.13;;;1.00;;
18455;SDS011;9357;49.900;8.208;2023-07-28T06:41:39;0.90;;;0.90;;
18455;SDS011;9357;49.900;8.208;2023-07-28T06:43:11;1.00;;;0.80;;
18455;SDS011;9357;49.900;8.208;2023-07-28T06:44:44;0.80;;;0.80;;
18455;SDS011;9357;49.900;8.208;2023-07-28T06:46:15;0.80;;;0.80;;
18455;SDS011;9357;49.900;8.208;2023-07-28T06:47:48;1.10;;;1.00;;
18455;SDS011;9357;49.900;8.208;2023-07-28T06:49:20;1.00;;;0.70;;
18455;SDS011;9357;49.900;8.208;2023-07-28T06:50:54;1.20;;;0.80;;
18455;SDS011;9357;49.900;8.208;2023-07-28T06:52:26;1.00;;;0.70;;
18455;SDS011;9357;49.900;8.208;2023-07-28T06:53:59;1.30;;;0.90;;
18455;SDS011;9357;49.900;8.208;2023-07-28T06:55:31;1.00;;;1.00;;
18455;SDS011;9357;49.900;8.208;2023-07-28T06:57:04;1.70;;;0.80;;
18455;SDS011;9357;49.900;8.208;2023-07-28T06:58:37;1.07;;;0.80;;
18455;SDS011;9357;49.900;8.208;2023-07-28T07:00:10;0.97;;;0.80;;
18455;SDS011;9357;49.900;8.208;2023-07-28T07:01:43;1.23;;;0.90;;
18455;SDS011;9357;49.900;8.208;2023-07-28T07:03:16;1.47;;;0.80;;
18455;SDS011;9357;49.900;8.208;2023-07-28T07:04:49;0.60;;;0.60;;
18455;SDS011;9357;49.900;8.208;2023-07-28T07:06:22;0.80;;;0.73;;
18455;SDS011;9357;49.900;8.208;2023-07-28T07:07:55;0.70;;;0.70;;
18455;SDS011;9357;49.900;8.208;2023-07-28T07:09:27;1.70;;;0.70;;
18455;SDS011;9357;49.900;8.208;2023-07-28T07:11:00;0.80;;;0.60;;
18455;SDS011;9357;49.900;8.208;2023-07-28T07:12:32;0.77;;;0.77;;
18455;SDS011;9357;49.900;8.208;2023-07-28T07:14:04;0.83;;;0.83;;
18455;SDS011;9357;49.900;8.208;2023-07-28T07:15:37;0.63;;;0.63;;
18455;SDS011;9357;49.900;8.208;2023-07-28T07:17:09;0.50;;;0.50;;
18455;SDS011;9357;49.900;8.208;2023-07-28T07:18:42;0.90;;;0.60;;
18455;SDS011;9357;49.900;8.208;2023-07-28T07:20:13;0.53;;;0.53;;
18455;SDS011;9357;49.900;8.208;2023-07-28T07:21:48;0.73;;;0.60;;
18455;SDS011;9357;49.900;8.208;2023-07-28T07:23:22;0.70;;;0.70;;
18455;SDS011;9357;49.900;8.208;2023-07-28T07:24:55;0.43;;;0.43;;
18455;SDS011;9357;49.900;8.208;2023-07-28T07:26:27;1.07;;;0.60;;
18455;SDS011;9357;49.900;8.208;2023-07-28T07:28:00;2.10;;;0.53;;
18455;SDS011;9357;49.900;8.208;2023-07-28T07:29:32;1.77;;;0.60;;
18455;SDS011;9357;49.900;8.208;2023-07-28T07:31:05;0.63;;;0.50;;
18455;SDS011;9357;49.900;8.208;2023-07-28T07:32:44;0.57;;;0.57;;
18455;SDS011;9357;49.900;8.208;2023-07-28T07:34:17;0.73;;;0.73;;
18455;SDS011;9357;49.900;8.208;2023-07-28T07:35:49;0.70;;;0.70;;
18455;SDS011;9357;49.900;8.208;2023-07-28T07:37:23;0.60;;;0.60;;
18455;SDS011;9357;49.900;8.208;2023-07-28T07:38:56;1.10;;;0.80;;
18455;SDS011;9357;49.900;8.208;2023-07-28T07:40:29;0.70;;;0.70;;
18455;SDS011;9357;49.900;8.208;2023-07-28T07:42:02;0.67;;;0.60;;
18455;SDS011;9357;49.900;8.208;2023-07-28T07:43:36;0.70;;;0.70;;
18455;SDS011;9357;49.900;8.208;2023-07-28T07:45:08;0.87;;;0.60;;
18455;SDS011;9357;49.900;8.208;2023-07-28T07:46:42;0.53;;;0.53;;
18455;SDS011;9357;49.900;8.208;2023-07-28T07:48:15;0.70;;;0.70;;
18455;SDS011;9357;49.900;8.208;2023-07-28T07:49:46;1.00;;;0.60;;
18455;SDS011;9357;49.900;8.208;2023-07-28T07:51:20;0.80;;;0.80;;
18455;SDS011;9357;49.900;8.208;2023-07-28T07:52:54;0.77;;;0.60;;
18455;SDS011;9357;49.900;8.208;2023-07-28T07:54:26;0.60;;;0.60;;
18455;SDS011;9357;49.900;8.208;2023-07-28T07:55:58;1.57;;;0.60;;
18455;SDS011;9357;49.900;8.208;2023-07-28T07:57:31;0.73;;;0.73;;
18455;SDS011;9357;49.900;8.208;2023-07-28T07:59:03;0.90;;;0.80;;
18455;SDS011;9357;49.900;8.208;2023-07-28T08:00:36;1.10;;;0.63;;
18455;SDS011;9357;49.900;8.208;2023-07-28T08:02:09;1.37;;;0.67;;
18455;SDS011;9357;49.900;8.208;2023-07-28T08:03:42;1.13;;;0.63;;
18455;SDS011;9357;49.900;8.208;2023-07-28T08:05:14;0.80;;;0.70;;
18455;SDS011;9357;49.900;8.208;2023-07-28T08:06:46;0.63;;;0.63;;
18455;SDS011;9357;49.900;8.208;2023-07-28T08:08:22;0.70;;;0.67;;
18455;SDS011;9357;49.900;8.208;2023-07-28T08:09:53;0.77;;;0.77;;
18455;SDS011;9357;49.900;8.208;2023-07-28T08:11:26;1.43;;;0.77;;
18455;SDS011;9357;49.900;8.208;2023-07-28T08:12:59;0.70;;;0.60;;
18455;SDS011;9357;49.900;8.208;2023-07-28T08:14:31;0.60;;;0.60;;
18455;SDS011;9357;49.900;8.208;2023-07-28T08:16:04;0.80;;;0.80;;
18455;SDS011;9357;49.900;8.208;2023-07-28T08:17:36;0.67;;;0.67;;
18455;SDS011;9357;49.900;8.208;2023-07-28T08:19:09;0.70;;;0.70;;
18455;SDS011;9357;49.900;8.208;2023-07-28T08:20:41;0.60;;;0.60;;
18455;SDS011;9357;49.900;8.208;2023-07-28T08:22:14;1.83;;;0.70;;
18455;SDS011;9357;49.900;8.208;2023-07-28T08:23:47;0.67;;;0.60;;
18455;SDS011;9357;49.900;8.208;2023-07-28T08:25:20;0.70;;;0.70;;
18455;SDS011;9357;49.900;8.208;2023-07-28T08:26:53;0.60;;;0.60;;
18455;SDS011;9357;49.900;8.208;2023-07-28T08:28:26;0.70;;;0.70;;
18455;SDS011;9357;49.900;8.208;2023-07-28T08:29:58;1.60;;;0.80;;
18455;SDS011;9357;49.900;8.208;2023-07-28T08:31:31;0.73;;;0.73;;
18455;SDS011;9357;49.900;8.208;2023-07-28T08:33:03;0.60;;;0.60;;
18455;SDS011;9357;49.900;8.208;2023-07-28T08:34:36;0.53;;;0.53;;
18455;SDS011;9357;49.900;8.208;2023-07-28T08:36:08;0.60;;;0.60;;
18455;SDS011;9357;49.900;8.208;2023-07-28T08:37:41;0.70;;;0.70;;
18455;SDS011;9357;49.900;8.208;2023-07-28T08:39:14;1.03;;;0.60;;
18455;SDS011;9357;49.900;8.208;2023-07-28T08:40:47;0.60;;;0.60;;
18455;SDS011;9357;49.900;8.208;2023-07-28T08:42:20;0.73;;;0.60;;
18455;SDS011;9357;49.900;8.208;2023-07-28T08:43:53;0.67;;;0.67;;
18455;SDS011;9357;49.900;8.208;2023-07-28T08:45:24;0.60;;;0.60;;
18455;SDS011;9357;49.900;8.208;2023-07-28T08:46:57;0.93;;;0.70;;
18455;SDS011;9357;49.900;8.208;2023-07-28T08:48:30;0.83;;;0.73;;
18455;SDS011;9357;49.900;8.208;2023-07-28T08:50:03;0.80;;;0.80;;
18455;SDS011;9357;49.900;8.208;2023-07-28T08:51:40;1.13;;;0.70;;
18455;SDS011;9357;49.900;8.208;2023-07-28T08:53:13;0.80;;;0.80;;
18455;SDS011;9357;49.900;8.208;2023-07-28T08:54:46;0.53;;;0.53;;
18455;SDS011;9357;49.900;8.208;2023-07-28T08:56:20;0.60;;;0.60;;
18455;SDS011;9357;49.900;8.208;2023-07-28T08:57:52;1.03;;;0.70;;
18455;SDS011;9357;49.900;8.208;2023-07-28T08:59:25;0.70;;;0.70;;
18455;SDS011;9357;49.900;8.208;2023-07-28T09:00:58;0.70;;;0.63;;
18455;SDS011;9357;49.900;8.208;2023-07-28T09:02:32;0.70;;;0.70;;
18455;SDS011;9357;49.900;8.208;2023-07-28T09:04:06;0.87;;;0.60;;
18455;SDS011;9357;49.900;8.208;2023-07-28T09:05:41;0.90;;;0.90;;
18455;SDS011;9357;49.900;8.208;2023-07-28T09:07:15;0.57;;;0.50;;
18455;SDS011;9357;49.900;8.208;2023-07-28T09:08:47;1.23;;;1.10;;
18455;SDS011;9357;49.900;8.208;2023-07-28T09:10:21;1.27;;;0.70;;
18455;SDS011;9357;49.900;8.208;2023-07-28T09:11:53;0.83;;;0.77;;
18455;SDS011;9357;49.900;8.208;2023-07-28T09:13:27;0.77;;;0.70;;
18455;SDS011;9357;49.900;8.208;2023-07-28T09:15:07;1.53;;;0.80;;
18455;SDS011;9357;49.900;8.208;2023-07-28T09:16:40;1.07;;;0.57;;
18455;SDS011;9357;49.900;8.208;2023-07-28T09:18:12;1.20;;;0.60;;
18455;SDS011;9357;49.900;8.208;2023-07-28T09:19:51;0.50;;;0.50;;
18455;SDS011;9357;49.900;8.208;2023-07-28T09:21:23;1.23;;;0.67;;
18455;SDS011;9357;49.900;8.208;2023-07-28T09:22:56;0.67;;;0.67;;
18455;SDS011;9357;49.900;8.208;2023-07-28T09:24:31;1.10;;;0.70;;
18455;SDS011;9357;49.900;8.208;2023-07-28T09:26:06;0.60;;;0.60;;
18455;SDS011;9357;49.900;8.208;2023-07-28T09:27:39;0.60;;;0.60;;